Weather observations for the past three days for
Pontiac, Oakland County International Airport
| Date | Time (edt) | Wind (kph) | Vis. (km) | Weather | Sky Cond. | Temperature (ºC) | Relative Humidity | Wind Chill (°C) | Heat Index (°C) | Pressure | Precipitation (cm) | ||||||
|---|---|---|---|---|---|---|---|---|---|---|---|---|---|---|---|---|---|
| Air | Dwpt | 6 hour | altimeter (cm) | sea level (mb) | 1 hr | 3 hr | 6 hr | ||||||||||
| Max. | Min. | ||||||||||||||||
| 08 | 15:53 | W 17 | 16.09 | Mostly Cloudy | SCT070 BKN200 | 16.1 | -2.8 | 27% | 75.62 | 1008.1 | |||||||
| 08 | 14:53 | SW 17 G 26 | 16.09 | Mostly Cloudy | FEW060 BKN210 | 16.1 | -2.2 | 29% | 75.67 | 1009.1 | |||||||
| 08 | 13:53 | W 13 G 37 | 16.09 | Mostly Cloudy | FEW055 BKN220 | 15 | -2.8 | 15.6 | 6.1 | 29% | 75.74 | 1009.9 | |||||
| 08 | 12:53 | W 17 G 31 | 16.09 | Partly Cloudy | FEW040 SCT060 SCT250 | 13.9 | -3.3 | 30% | 75.82 | 1010.8 | |||||||
| 08 | 11:53 | W 13 G 28 | 16.09 | Partly Cloudy | FEW030 SCT060 SCT250 | 12.8 | -1.7 | 37% | 75.84 | 1011.4 | |||||||
| 08 | 10:53 | Calm | 16.09 | Partly Cloudy | FEW030 FEW070 SCT250 | 11.1 | 0 | 47% | 75.9 | 1011.9 | |||||||
| 08 | 09:53 | Vrbl 6 | 16.09 | Partly Cloudy | FEW070 SCT250 | 10 | 1.1 | 54% | 75.92 | 1012.3 | |||||||
| 08 | 08:53 | S 6 | 16.09 | Partly Cloudy | FEW070 SCT250 | 8.3 | 2.8 | 69% | 75.92 | 1012.3 | |||||||
| 08 | 07:53 | S 6 | 16.09 | Mostly Cloudy | SCT070 SCT100 BKN250 | 6.1 | 1.7 | 6.7 | 2.8 | 74% | 75.9 | 1012.0 | |||||
| 08 | 06:53 | Calm | 16.09 | A Few Clouds | FEW100 FEW250 | 3.3 | 2.2 | 93% | 75.84 | 1011.6 | |||||||
| 08 | 05:53 | Calm | 14.48 | A Few Clouds | FEW250 | 3.3 | 2.2 | 93% | 75.84 | 1011.5 | |||||||
| 07 | 23:53 | SW 15 | 12.87 | Light Rain | FEW025 BKN035 OVC095 | 8.3 | 1.1 | 61% | 6 | 75.9 | 1012.1 | ||||||
| 07 | 22:53 | NW 7 | 16.09 | Overcast | OVC110 | 8.9 | -1.1 | 50% | 8 | 75.9 | 1011.8 | ||||||
| 07 | 21:53 | W 11 | 16.09 | Overcast | OVC080 | 10 | -2.2 | 43% | 9 | 75.87 | 1011.8 | ||||||
| 07 | 20:53 | W 13 | 16.09 | Mostly Cloudy | BKN070 BKN100 | 10.6 | -3.3 | 38% | 75.84 | 1011.3 | |||||||
| 07 | 19:53 | NW 20 | 16.09 | Mostly Cloudy | FEW070 BKN100 | 10.6 | -3.3 | 12.2 | 10.6 | 38% | 75.82 | 1011.2 | |||||
| 07 | 18:53 | NW 22 | 16.09 | Mostly Cloudy | BKN070 | 11.7 | -3.3 | 35% | 75.82 | 1011.3 | |||||||
| 07 | 17:53 | W 24 | 16.09 | Mostly Cloudy | BKN070 | 11.7 | -3.3 | 35% | 75.84 | 1011.5 | |||||||
| 07 | 16:53 | NW 22 G 46 | 16.09 | Mostly Cloudy | BKN070 | 11.7 | -3.1 | 36% | 75.84 | 1011.4 | |||||||
| 07 | 15:53 | W 28 G 41 | 16.09 | Mostly Cloudy | BKN070 | 11.1 | -3.9 | 35% | 75.87 | 1011.9 | |||||||
| 07 | 14:53 | W 33 G 46 | 16.09 | Mostly Cloudy and Breezy | BKN065 | 11.7 | -4.4 | 32% | 75.9 | 1012.0 | |||||||
| 07 | 13:53 | W 26 G 44 | 16.09 | Mostly Cloudy | BKN060 BKN075 | 11.1 | -2.8 | 11.7 | 6.1 | 38% | 75.92 | 1012.3 | |||||
| 07 | 12:53 | W 26 G 44 | 16.09 | Mostly Cloudy | BKN060 | 10.6 | -3.3 | 38% | 75.95 | 1012.8 | |||||||
| 07 | 11:53 | W 30 | 16.09 | Mostly Cloudy | BKN060 | 10.6 | -2.8 | 39% | 75.95 | 1012.7 | |||||||
| 07 | 10:53 | W 22 G 39 | 16.09 | Mostly Cloudy | FEW040 BKN055 | 11.1 | -2.2 | 40% | 75.92 | 1012.5 | |||||||
| 07 | 09:53 | W 13 | 16.09 | Partly Cloudy | FEW042 SCT060 SCT250 | 10 | -1.7 | 44% | 8 | 75.95 | 1012.7 | ||||||
| 07 | 08:53 | W 7 | 16.09 | Partly Cloudy | FEW037 FEW090 SCT250 | 8.3 | -1.1 | 52% | 7 | 75.97 | 1012.9 | ||||||
| 07 | 07:53 | W 6 | 16.09 | A Few Clouds | FEW085 FEW250 | 6.1 | 1.1 | 7.2 | 3.9 | 71% | 75.97 | 1013.0 | |||||
| 07 | 06:53 | Calm | 16.09 | Partly Cloudy | FEW085 SCT250 | 3.9 | 0 | 76% | 75.92 | 1012.6 | |||||||
| 07 | 05:53 | NW 6 | 16.09 | Partly Cloudy | FEW070 SCT085 | 5 | -1.7 | 62% | 75.9 | 1012.4 | |||||||
| 06 | 23:53 | W 6 | 16.09 | Mostly Cloudy | BKN070 | 8.3 | -2.2 | 48% | 75.97 | 1013.1 | |||||||
| 06 | 22:53 | SW 6 | 16.09 | Mostly Cloudy | BKN070 | 8.9 | -2.2 | 46% | 76 | 1013.4 | |||||||
| 06 | 21:53 | SW 7 | 16.09 | Overcast | OVC070 | 10 | -2.2 | 43% | 9 | 75.97 | 1013.1 | ||||||
| 06 | 20:53 | SW 6 | 16.09 | Overcast | OVC070 | 10 | -2.2 | 43% | 75.95 | 1012.9 | |||||||
| 06 | 19:53 | SW 11 | 16.09 | Overcast | OVC075 | 10 | -2.2 | 11.1 | 9.4 | 43% | 9 | 75.92 | 1012.6 | ||||
| 06 | 18:53 | W 13 | 16.09 | Overcast | BKN070 OVC140 | 10.6 | -2.8 | 39% | 75.92 | 1012.5 | |||||||
| 06 | 17:53 | W 13 | 16.09 | Overcast | BKN070 OVC140 | 10.6 | -2.8 | 39% | 75.92 | 1012.6 | |||||||
| 06 | 16:53 | W 17 | 16.09 | Overcast | OVC065 | 10 | -2.8 | 41% | 8 | 75.92 | 1012.6 | ||||||
| 06 | 15:53 | W 17 | 16.09 | Overcast | BKN060 OVC150 | 10 | -2.2 | 43% | 8 | 75.95 | 1012.7 | ||||||
| 06 | 14:53 | NW 15 | 16.09 | Overcast | BKN060 OVC150 | 9.1 | -3.1 | 42% | 7 | 75.95 | 0.0 | ||||||
| 06 | 13:53 | NW 15 | 16.09 | Overcast | BKN055 BKN180 OVC250 | 9.1 | -2.4 | 45% | 7 | 75.97 | 0.0 | ||||||
| 06 | 12:53 | W 17 | 16.09 | Mostly Cloudy | BKN049 BKN060 BKN250 | 9 | -2.1 | 46% | 7 | 75.97 | 0.0 | ||||||
| 06 | 11:53 | N 19 | 16.09 | Mostly Cloudy | SCT049 BKN055 BKN250 | 9.1 | -1.5 | 48% | 7 | 75.95 | 0.0 | ||||||
| 06 | 10:53 | Vrbl 6 | 16.09 | Mostly Cloudy | FEW034 SCT120 BKN250 | 7.6 | -1 | 55% | 75.92 | 0.0 | |||||||
| 06 | 09:53 | N 13 | 16.09 | Mostly Cloudy | FEW033 SCT120 BKN250 | 7.3 | -1.1 | 56% | 5 | 75.9 | 0.0 | ||||||
| 06 | 08:53 | N 15 | 16.09 | Partly Cloudy | FEW030 SCT120 SCT250 | 7.1 | 0.4 | 63% | 5 | 75.82 | 0.0 | ||||||
| 06 | 07:53 | N 7 | 16.09 | Mostly Cloudy | FEW100 BKN130 BKN250 | 6.9 | 1.3 | 68% | 6 | 75.79 | 0.0 | ||||||
| 06 | 06:53 | N 9 | 16.09 | Mostly Cloudy | SCT110 BKN180 BKN250 | 6.3 | 2.5 | 77% | 5 | 75.72 | 0.0 | ||||||
| 06 | 05:53 | N 9 | 14.48 | Mostly Cloudy | BKN100 BKN180 | 7.3 | 1.9 | 69% | 6 | 75.67 | 0.0 | ||||||
| 05 | 23:53 | NW 11 | 16.09 | Overcast | OVC090 | 9.2 | -0.4 | 51% | 8 | 75.64 | 0.0 | ||||||
| 05 | 22:53 | W 15 | 16.09 | Overcast | OVC110 | 10.2 | -1.4 | 45% | 75.64 | 0.0 | |||||||
| 05 | 21:53 | NW 13 | 16.09 | Overcast | FEW070 OVC120 | 10.2 | -2.4 | 42% | 75.62 | 0.0 | |||||||
| 05 | 20:53 | W 19 | 16.09 | Overcast | FEW070 OVC140 | 11.2 | -3.4 | 36% | 75.59 | 0.0 | |||||||
| 05 | 19:53 | W 20 | 16.09 | Overcast | SCT070 OVC140 | 12.1 | -2.4 | 37% | 75.54 | 0.0 | |||||||
| 05 | 18:53 | W 17 | 16.09 | Overcast | SCT070 OVC140 | 12.1 | 0.4 | 45% | 75.57 | 0.0 | |||||||
| 05 | 17:53 | W 24 | 16.09 | Overcast | SCT035 OVC070 | 12.1 | 3.4 | 56% | 75.57 | 0.0 | |||||||
| 05 | 16:53 | NW 19 | 16.09 | Overcast | SCT035 OVC070 | 12.1 | 3.4 | 56% | 75.57 | 0.0 | |||||||
| Date | Time (edt) | Wind (kph) | Vis. (km) | Weather | Sky Cond. | Air | Dwpt | Max. | Min. | Relative Humidity | Wind Chill (°C) | Heat Index (°C) | altimeter (cm) | sea level (mb) | 1 hr | 3 hr | 6 hr |
| 6 hour | |||||||||||||||||
| Temperature (ºC) | Pressure | Precipitation (cm) | |||||||||||||||